Chiloquin, OR (97604)

12:31 PM PDT on September 21, 2014 (GMT -0700)
RAWS CHILOQUIN OR US | Change Station
CLOSE
Current Station
Personal Weather Station
Location: Sprague River, OR
Elevation: 4419 ft
Nearby Weather Stations

Elev 4419 ft 42.58 °N, 121.89 °W | Updated 35 minutes ago

Partly Cloudy
Partly Cloudy
78 °F
Feels Like 78 °F
N
4
Wind Variable Wind from SW
Gusts 9.0 mph

Today
High -- | Low -- °F
--% Chance of Precip.
Yesterday
High -- | Low -- °F
Precip. -- in
6:53 AM 7:06 PM
Waning Crescent, 6% visible
Pressure 29.95 in
Visibility 10.0 miles
Clouds Scattered Clouds 12000 ft
Heat Index 78 °F
Dew Point 44 °F
Humidity 30%
Rainfall 0.00 in
Snow Depth 0 in , 0 in , 0 in
UV 5 out of 12
Pollen 4.00 out of 12
Air Quality Not available.
Flu Activity Not available.
METAR KLMT 211853Z 16008KT 10SM SCT120 21/09 A3007 RMK AO2 SLP140 T02110089

More Conditions Fewer Conditions

Pressure 29.95 in
Visibility 10.0 miles
Clouds Scattered Clouds 12000 ft
Heat Index 78 °F
Dew Point 44 °F
Humidity 30%
Rainfall 0.00 in
Snow Depth 0 in , 0 in , 0 in
UV 5 out of 12
Pollen 4.00 out of 12
Air Quality Not available.
Flu Activity Not available.
METAR KLMT 211853Z 16008KT 10SM SCT120 21/09 A3007 RMK AO2 SLP140 T02110089

More Conditions Fewer Conditions

10-Day Weather Forecast

Almanac

Astronomy

Sep. 21, 2014 Rise Set
Actual Time 6:53 AM PDT 7:06 PM PDT
Civil Twilight 6:25 AM PDT 7:34 PM PDT
Nautical Twilight 5:52 AM PDT 8:07 PM PDT
Astronomical Twilight 5:18 AM PDT 8:41 PM PDT
Moon 4:29 AM PDT 5:47 PM PDT
Length of Visible Light 13h 08m
Length of Day
12h 12m
Tomorrow will be 2m 51s shorter.
Waning Crescent, 6% of the Moon is Illuminated
Today
Waning Crescent
Sep 24
New
Oct 1
First Quarter
Oct 8
Full
Oct 15
Last Quarter

Today's Extremes

State Highs State Lows

Community

WunderPhotos

Upload Photos

1,755,232 photos uploaded!

Nearby

Snow Depth

Station Depth Elevation
Strawberry 0 in 5760 ft
Peavine Ridge 0 in 3500 ft
Greenpoint 0 in 3200 ft
Seine Creek 0 in 2000 ft
Three Creeks Meadow 0 in 5650 ft

Earthquake Activity

City Distance Mag. Time & Date
No recent earthquake activity has been reported nearby.
Minimum magnitude displayed is 2.5.

Coastal Water Temperatures

Place Temperature
No Stations Reporting

Nearby Weather Stations